createdAt,value
2023-05-19T00:00:30.803Z,63.86
2023-05-19T00:03:00.353Z,63.27
2023-05-19T00:05:30.369Z,63.72
2023-05-19T00:07:59.939Z,63.96
2023-05-19T00:10:31.569Z,63.85
2023-05-19T00:13:00.589Z,64.27
2023-05-19T00:15:28.493Z,64.09
2023-05-19T00:17:56.430Z,64.45
2023-05-19T00:20:24.162Z,64.48
2023-05-19T00:22:51.767Z,64.42
2023-05-19T00:25:19.349Z,65.01
2023-05-19T00:27:46.841Z,65.29
2023-05-19T00:30:14.907Z,65.39
2023-05-19T00:32:43.499Z,65.01
2023-05-19T00:35:11.224Z,65.17
2023-05-19T00:37:39.080Z,65.38
2023-05-19T00:40:09.354Z,65.63
2023-05-19T00:42:37.326Z,65.48
2023-05-19T00:45:05.765Z,65.56
2023-05-19T00:47:33.910Z,65.80
2023-05-19T00:50:01.628Z,66.25
2023-05-19T00:52:29.780Z,66.13
2023-05-19T00:54:57.284Z,66.98
2023-05-19T00:57:26.911Z,66.64
2023-05-19T00:59:54.396Z,67.06
2023-05-19T01:02:22.171Z,67.41
2023-05-19T01:04:50.422Z,68.04
2023-05-19T01:07:18.559Z,68.32
2023-05-19T01:09:46.159Z,68.69
2023-05-19T01:12:14.097Z,69.37
2023-05-19T01:14:42.455Z,69.62
2023-05-19T01:17:14.141Z,70.04
2023-05-19T01:19:46.420Z,70.58
2023-05-19T01:22:30.979Z,70.63
2023-05-19T01:25:20.186Z,72.01
2023-05-19T01:27:56.910Z,72.57
2023-05-19T01:30:38.234Z,73.31
2023-05-19T01:33:07.843Z,73.81
2023-05-19T01:35:37.308Z,73.91
2023-05-19T01:38:06.160Z,74.57
2023-05-19T01:40:34.592Z,75.44
2023-05-19T01:43:02.457Z,76.64
2023-05-19T01:45:31.007Z,77.55
2023-05-19T01:48:00.181Z,79.47
2023-05-19T01:50:28.432Z,80.40
2023-05-19T01:52:55.979Z,81.28
2023-05-19T01:55:23.619Z,81.99
2023-05-19T01:58:02.645Z,81.52
2023-05-19T02:00:51.795Z,82.18
2023-05-19T02:04:04.110Z,82.04
2023-05-19T02:07:01.552Z,83.12
2023-05-19T02:09:41.757Z,82.93
2023-05-19T02:12:21.564Z,83.25
2023-05-19T02:14:53.100Z,83.52
2023-05-19T02:17:20.562Z,84.21
2023-05-19T02:19:48.199Z,83.94
2023-05-19T02:22:16.008Z,84.48
2023-05-19T02:24:44.880Z,85.04
2023-05-19T02:27:12.571Z,85.05
2023-05-19T02:29:40.036Z,85.83
2023-05-19T02:32:08.101Z,85.99
2023-05-19T02:34:35.704Z,86.00
2023-05-19T02:37:07.364Z,86.38
2023-05-19T02:39:35.184Z,86.90
2023-05-19T02:42:03.847Z,87.25
2023-05-19T02:44:31.246Z,87.16
2023-05-19T02:46:58.704Z,87.53
2023-05-19T02:49:26.415Z,87.58
2023-05-19T02:51:55.383Z,87.72
2023-05-19T02:54:22.835Z,87.91
2023-05-19T02:56:50.389Z,88.60
2023-05-19T02:59:18.197Z,88.38
2023-05-19T03:01:47.320Z,88.96
2023-05-19T03:04:14.879Z,89.30
2023-05-19T03:06:45.340Z,89.26
2023-05-19T03:09:16.553Z,88.94
2023-05-19T03:11:44.143Z,89.73
2023-05-19T03:14:13.715Z,89.43
2023-05-19T03:16:42.265Z,89.41
2023-05-19T03:19:10.135Z,89.23
2023-05-19T03:21:37.746Z,89.25
2023-05-19T03:24:05.526Z,89.68
2023-05-19T03:26:33.868Z,88.91
2023-05-19T03:29:01.515Z,89.37
2023-05-19T03:31:31.716Z,89.65
2023-05-19T03:33:59.900Z,89.41
2023-05-19T03:36:31.792Z,89.38
2023-05-19T03:38:59.479Z,89.43
2023-05-19T03:41:27.192Z,89.84
2023-05-19T03:43:54.955Z,89.62
2023-05-19T03:46:22.571Z,89.07
2023-05-19T03:49:18.679Z,89.22
2023-05-19T03:51:58.638Z,89.57
2023-05-19T03:54:34.500Z,89.59
2023-05-19T03:57:02.090Z,89.93
2023-05-19T03:59:31.711Z,90.21
2023-05-19T04:01:59.286Z,89.94
2023-05-19T04:04:28.125Z,90.01
2023-05-19T04:06:56.098Z,89.47
2023-05-19T04:09:26.607Z,90.25
2023-05-19T04:11:56.006Z,89.82
2023-05-19T04:14:25.109Z,90.23
2023-05-19T04:16:53.709Z,89.99
2023-05-19T04:19:21.149Z,90.36
2023-05-19T04:21:48.973Z,89.85
2023-05-19T04:24:16.527Z,89.90
2023-05-19T04:26:47.065Z,89.42
2023-05-19T04:29:17.560Z,89.26
2023-05-19T04:31:45.167Z,89.97
2023-05-19T04:34:12.696Z,89.18
2023-05-19T04:36:40.128Z,89.66
2023-05-19T04:39:09.823Z,89.88
2023-05-19T04:41:40.197Z,89.79
2023-05-19T04:44:08.817Z,90.36
2023-05-19T04:46:37.129Z,89.69
2023-05-19T04:49:05.564Z,89.48
2023-05-19T04:51:32.947Z,89.28
2023-05-19T04:54:01.462Z,88.96
2023-05-19T04:56:29.748Z,88.64
2023-05-19T04:58:57.626Z,88.18
2023-05-19T05:01:26.275Z,87.97
2023-05-19T05:03:55.972Z,87.15
2023-05-19T05:06:23.564Z,87.27
2023-05-19T05:08:52.011Z,86.74
2023-05-19T05:11:20.350Z,86.58
2023-05-19T05:13:48.419Z,86.36
2023-05-19T05:16:16.602Z,86.62
2023-05-19T05:18:46.599Z,86.55
2023-05-19T05:21:15.529Z,86.15
2023-05-19T05:23:43.925Z,85.79
2023-05-19T05:26:17.218Z,85.59
2023-05-19T05:28:45.471Z,85.30
2023-05-19T05:31:12.876Z,85.23
2023-05-19T05:33:41.192Z,85.21
2023-05-19T05:36:09.452Z,84.69
2023-05-19T05:38:41.432Z,84.58
2023-05-19T05:41:09.095Z,84.15
2023-05-19T05:43:37.295Z,84.36
2023-05-19T05:46:04.912Z,83.99
2023-05-19T05:48:32.969Z,83.87
2023-05-19T05:51:00.838Z,83.36
2023-05-19T05:53:32.048Z,82.75
2023-05-19T05:56:00.176Z,82.35
2023-05-19T05:58:36.291Z,82.19
2023-05-19T06:01:05.114Z,81.57
2023-05-19T06:03:33.575Z,82.14
2023-05-19T06:06:05.180Z,81.95
2023-05-19T06:08:32.974Z,81.62
2023-05-19T06:11:00.602Z,81.21
2023-05-19T06:13:29.950Z,81.05
2023-05-19T06:15:59.226Z,81.10
2023-05-19T06:18:32.774Z,81.13
2023-05-19T06:21:01.512Z,81.17
2023-05-19T06:23:30.530Z,80.45
2023-05-19T06:25:58.298Z,80.06
2023-05-19T06:28:25.788Z,79.98
2023-05-19T06:30:53.437Z,79.72
2023-05-19T06:33:28.994Z,79.84
2023-05-19T06:35:57.223Z,79.38
2023-05-19T06:38:25.455Z,79.09
2023-05-19T06:40:52.909Z,79.10
2023-05-19T06:43:20.814Z,78.36
2023-05-19T06:45:59.352Z,77.82
2023-05-19T06:48:27.110Z,77.19
2023-05-19T06:50:54.917Z,76.63
2023-05-19T06:53:22.905Z,76.98
2023-05-19T06:55:59.298Z,76.89
2023-05-19T06:58:29.266Z,76.16
2023-05-19T07:00:57.442Z,75.90
2023-05-19T07:03:27.021Z,74.69
2023-05-19T07:39:03.368Z,67.97
2023-05-19T07:41:31.432Z,67.29
2023-05-19T07:43:59.096Z,66.09
2023-05-19T07:46:26.840Z,65.60
2023-05-19T07:48:55.804Z,64.37
2023-05-19T07:51:23.315Z,64.02
2023-05-19T07:53:51.769Z,63.60
2023-05-19T07:56:19.662Z,63.00
2023-05-19T07:58:50.252Z,62.88
2023-05-19T08:01:17.749Z,62.37
2023-05-19T08:03:47.736Z,61.61
2023-05-19T08:06:15.270Z,60.37
2023-05-19T08:08:44.034Z,59.63
2023-05-19T08:11:12.385Z,58.51
2023-05-19T08:13:40.041Z,57.95
2023-05-19T08:16:07.735Z,57.38
2023-05-19T08:18:35.570Z,57.57
2023-05-19T08:21:03.137Z,57.80
2023-05-19T08:23:30.540Z,57.67
2023-05-19T08:25:58.175Z,56.99
2023-05-19T08:28:25.773Z,56.91
2023-05-19T08:30:53.267Z,57.87
2023-05-19T08:33:23.724Z,57.97
2023-05-19T08:35:51.434Z,56.86
2023-05-19T08:38:18.932Z,56.60
2023-05-19T08:40:47.112Z,56.05
2023-05-19T08:43:14.779Z,55.45
2023-05-19T08:45:48.663Z,54.32
2023-05-19T08:48:17.666Z,53.53
2023-05-19T08:50:51.086Z,53.23
2023-05-19T08:53:33.271Z,53.26
2023-05-19T08:56:11.035Z,53.25
2023-05-19T08:58:44.339Z,53.13
2023-05-19T09:01:14.671Z,52.75
2023-05-19T09:03:42.678Z,52.69
2023-05-19T09:06:13.030Z,53.37
2023-05-19T09:08:41.845Z,53.43
2023-05-19T09:11:09.851Z,53.63
2023-05-19T09:13:37.492Z,53.94
2023-05-19T09:16:05.463Z,53.43
2023-05-19T09:18:33.188Z,53.57
2023-05-19T09:21:03.220Z,53.66
2023-05-19T09:23:33.894Z,53.38
2023-05-19T09:26:08.197Z,53.55
2023-05-19T09:28:36.855Z,53.71
2023-05-19T09:31:09.791Z,53.32
2023-05-19T09:33:39.399Z,53.07
2023-05-19T09:36:08.813Z,53.03
2023-05-19T09:38:37.268Z,52.14
2023-05-19T09:41:05.892Z,52.26
2023-05-19T09:43:34.178Z,52.20
2023-05-19T09:46:05.048Z,51.69
2023-05-19T09:48:33.516Z,51.08
2023-05-19T09:51:01.741Z,49.65
2023-05-19T09:53:30.721Z,49.18
2023-05-19T09:55:58.375Z,48.93
2023-05-19T09:58:27.021Z,49.12
2023-05-19T10:00:57.508Z,49.84
2023-05-19T10:03:26.018Z,50.77
2023-05-19T10:05:53.906Z,51.05
2023-05-19T10:08:22.044Z,50.71
2023-05-19T10:10:49.621Z,50.79
2023-05-19T10:13:17.188Z,49.83
2023-05-19T10:15:58.190Z,48.97
2023-05-19T10:18:27.346Z,48.51
2023-05-19T10:20:54.938Z,48.63
2023-05-19T10:23:22.820Z,49.09
2023-05-19T10:25:52.121Z,48.98
2023-05-19T10:28:21.542Z,49.30
2023-05-19T10:30:50.241Z,48.51
2023-05-19T10:33:21.328Z,48.01
2023-05-19T10:36:21.748Z,47.96
2023-05-19T10:38:51.516Z,47.97
2023-05-19T10:41:38.432Z,48.79
2023-05-19T10:44:24.819Z,48.89
2023-05-19T10:46:54.205Z,48.72
2023-05-19T10:49:23.547Z,48.89
2023-05-19T10:51:52.954Z,49.31
2023-05-19T10:54:41.294Z,49.51
2023-05-19T10:57:08.805Z,49.91
2023-05-19T10:59:40.525Z,49.99
2023-05-19T11:02:09.014Z,50.23
2023-05-19T11:04:51.085Z,51.34
2023-05-19T11:07:20.790Z,52.05
2023-05-19T11:09:52.248Z,52.38
2023-05-19T11:12:24.642Z,51.96
2023-05-19T11:14:55.988Z,51.76
2023-05-19T11:17:25.113Z,51.70
2023-05-19T11:19:56.987Z,51.74
2023-05-19T11:22:26.883Z,51.69
2023-05-19T11:24:57.821Z,51.00
2023-05-19T11:27:33.013Z,51.45
2023-05-19T11:30:11.930Z,51.79
2023-05-19T11:32:39.902Z,52.40
2023-05-19T11:35:08.542Z,52.74
2023-05-19T11:37:36.178Z,53.33
2023-05-19T11:40:07.911Z,53.33
2023-05-19T11:42:36.528Z,53.84
2023-05-19T11:45:05.192Z,53.86
2023-05-19T11:47:47.107Z,54.41
2023-05-19T11:50:23.371Z,54.21
2023-05-19T11:52:52.119Z,54.57
2023-05-19T11:55:23.481Z,54.63
2023-05-19T11:58:05.219Z,54.90
2023-05-19T12:00:40.865Z,54.82
2023-05-19T12:03:09.837Z,54.58
2023-05-19T12:05:42.882Z,54.14
2023-05-19T12:08:12.297Z,53.80
2023-05-19T12:10:40.158Z,54.01
2023-05-19T12:13:10.823Z,54.08
2023-05-19T12:15:39.431Z,54.25
2023-05-19T12:18:07.792Z,54.56
2023-05-19T12:20:38.114Z,54.80
2023-05-19T12:23:06.056Z,55.41
2023-05-19T12:25:34.228Z,54.79
2023-05-19T12:28:05.146Z,55.05
2023-05-19T12:30:33.417Z,55.37
2023-05-19T12:33:02.176Z,56.13
2023-05-19T12:35:36.583Z,55.91
2023-05-19T12:38:05.424Z,56.12
2023-05-19T12:40:36.752Z,56.28
2023-05-19T12:43:04.560Z,57.13
2023-05-19T12:45:36.512Z,57.59
2023-05-19T12:48:11.972Z,57.61
2023-05-19T12:50:39.511Z,57.79
2023-05-19T12:53:11.533Z,57.67
2023-05-19T12:55:43.394Z,57.44
2023-05-19T12:58:14.051Z,58.45
2023-05-19T13:00:42.809Z,59.13
2023-05-19T13:03:16.323Z,59.52
2023-05-19T13:05:46.824Z,60.66
2023-05-19T13:08:16.625Z,62.21
2023-05-19T13:10:45.176Z,62.32
2023-05-19T13:13:12.696Z,62.56
2023-05-19T13:15:42.425Z,63.40
2023-05-19T13:18:11.312Z,64.39
2023-05-19T13:20:40.002Z,64.56
2023-05-19T13:23:07.606Z,64.77
2023-05-19T13:25:35.393Z,65.29
2023-05-19T13:28:06.006Z,65.93
2023-05-19T13:30:34.660Z,66.76
2023-05-19T13:33:03.347Z,67.01
2023-05-19T13:35:37.577Z,67.49
2023-05-19T13:38:10.663Z,67.59
2023-05-19T13:40:40.103Z,68.18
2023-05-19T13:43:09.064Z,68.93
2023-05-19T13:45:37.315Z,68.47
2023-05-19T13:48:07.593Z,68.10
2023-05-19T13:50:35.420Z,67.63
2023-05-19T13:53:04.115Z,67.66
2023-05-19T13:55:32.103Z,68.56
2023-05-19T13:57:59.581Z,69.33
2023-05-19T14:00:27.379Z,70.60
2023-05-19T14:02:55.518Z,71.54
2023-05-19T14:05:23.383Z,71.80
2023-05-19T14:07:51.168Z,71.85
2023-05-19T14:10:18.644Z,71.90
2023-05-19T14:13:14.161Z,71.61
2023-05-19T14:15:38.310Z,71.64
2023-05-19T14:18:07.114Z,70.54
2023-05-19T14:20:35.114Z,70.03
2023-05-19T14:23:03.450Z,70.21
2023-05-19T14:25:30.995Z,70.62
2023-05-19T14:27:58.497Z,70.39
2023-05-19T14:30:26.080Z,70.26
2023-05-19T14:32:54.073Z,70.06
2023-05-19T14:35:22.013Z,70.37
2023-05-19T14:37:51.249Z,70.72
2023-05-19T14:40:19.043Z,70.93
2023-05-19T14:42:46.499Z,71.33
2023-05-19T14:45:14.455Z,71.13
2023-05-19T14:47:42.012Z,70.77
2023-05-19T14:50:09.613Z,71.15
2023-05-19T14:52:37.124Z,71.13
2023-05-19T14:55:05.187Z,71.55
2023-05-19T14:57:32.694Z,70.70
2023-05-19T15:00:00.275Z,69.74
2023-05-19T15:02:29.587Z,69.52
2023-05-19T15:04:57.482Z,69.90
2023-05-19T15:07:25.083Z,70.12
2023-05-19T15:09:52.677Z,70.57
2023-05-19T15:12:20.079Z,70.65
2023-05-19T15:14:47.574Z,70.79
2023-05-19T15:17:15.110Z,71.19
2023-05-19T15:19:43.169Z,71.90
2023-05-19T15:22:10.693Z,71.68
2023-05-19T15:24:38.241Z,71.90
2023-05-19T15:27:05.908Z,72.16
2023-05-19T15:29:33.588Z,71.55
2023-05-19T15:32:01.219Z,71.75
2023-05-19T15:34:28.829Z,72.04
2023-05-19T15:36:56.610Z,71.36
2023-05-19T15:39:24.260Z,71.84
2023-05-19T15:41:51.913Z,72.00
2023-05-19T15:44:19.494Z,72.44
2023-05-19T15:46:47.146Z,72.97
2023-05-19T15:49:14.868Z,72.88
2023-05-19T15:51:42.580Z,73.11
2023-05-19T15:54:10.343Z,73.79
2023-05-19T15:56:38.075Z,74.04
2023-05-19T15:59:05.677Z,74.45
2023-05-19T16:01:33.203Z,75.05
2023-05-19T16:04:02.568Z,75.49
2023-05-19T16:06:30.808Z,76.12
2023-05-19T16:08:58.577Z,75.67
2023-05-19T16:11:27.642Z,74.42
2023-05-19T16:13:55.197Z,74.17
2023-05-19T16:16:22.890Z,74.61
2023-05-19T16:18:50.780Z,74.88
2023-05-19T16:21:18.559Z,75.97
2023-05-19T16:23:46.277Z,77.03
2023-05-19T16:26:13.926Z,77.60
2023-05-19T16:28:41.459Z,78.58
2023-05-19T16:31:09.019Z,79.41
2023-05-19T16:33:36.484Z,80.01
2023-05-19T16:36:04.242Z,80.68
2023-05-19T16:38:31.789Z,80.90
2023-05-19T16:40:59.501Z,81.44
2023-05-19T16:43:27.004Z,82.04
2023-05-19T16:45:54.621Z,82.70
2023-05-19T16:48:22.203Z,83.03
2023-05-19T16:50:49.909Z,83.70
2023-05-19T16:53:17.776Z,84.28
2023-05-19T16:55:45.312Z,84.91
2023-05-19T16:58:13.134Z,85.42
2023-05-19T17:00:40.776Z,85.94
2023-05-19T17:03:08.388Z,86.40
2023-05-19T17:05:38.583Z,86.99
2023-05-19T17:08:06.508Z,87.30
2023-05-19T17:10:34.270Z,87.75
2023-05-19T17:13:02.434Z,88.29
2023-05-19T17:15:30.032Z,88.63
2023-05-19T17:17:57.523Z,89.37
2023-05-19T17:20:25.179Z,89.86
2023-05-19T17:22:53.103Z,90.45
2023-05-19T17:25:20.615Z,91.06
2023-05-19T17:27:48.149Z,91.41
2023-05-19T17:30:15.671Z,91.70
2023-05-19T17:32:43.248Z,92.03
2023-05-19T17:35:11.029Z,92.62
2023-05-19T17:37:38.621Z,92.74
2023-05-19T17:40:07.038Z,93.14
2023-05-19T17:42:34.517Z,93.80
2023-05-19T17:45:03.954Z,94.11
2023-05-19T17:47:31.642Z,94.62
2023-05-19T17:49:59.111Z,95.27
2023-05-19T17:52:27.275Z,95.35
2023-05-19T17:54:55.114Z,95.87
2023-05-19T17:57:24.674Z,96.22
2023-05-19T17:59:52.883Z,96.55
2023-05-19T18:02:20.625Z,97.06
2023-05-19T18:04:48.311Z,97.59
2023-05-19T18:07:17.228Z,98.09
2023-05-19T18:09:46.749Z,98.15
2023-05-19T18:12:14.575Z,98.88
2023-05-19T18:14:42.287Z,98.88
2023-05-19T18:17:10.107Z,99.56
2023-05-19T18:19:37.597Z,99.61
2023-05-19T18:22:05.585Z,100.00
2023-05-19T18:24:33.389Z,100.00
2023-05-19T18:27:01.092Z,100.00
2023-05-19T18:29:28.866Z,100.00
2023-05-19T18:31:56.681Z,100.00
2023-05-19T18:34:24.197Z,100.00
2023-05-19T18:36:51.911Z,100.00
2023-05-19T18:39:19.749Z,100.00
2023-05-19T18:41:47.931Z,100.00
2023-05-19T18:44:15.609Z,100.00
2023-05-19T18:46:43.348Z,100.00
2023-05-19T18:49:11.993Z,100.00
2023-05-19T18:51:39.871Z,100.00
2023-05-19T18:54:07.636Z,100.00
2023-05-19T18:56:35.865Z,100.00
2023-05-19T18:59:03.413Z,100.00
2023-05-19T19:01:31.100Z,100.00
2023-05-19T19:03:58.926Z,100.00
2023-05-19T19:06:26.586Z,100.00
2023-05-19T19:08:54.132Z,100.00
2023-05-19T19:11:22.092Z,100.00
2023-05-19T19:13:51.672Z,100.00
2023-05-19T19:16:19.544Z,100.00
2023-05-19T19:18:47.430Z,100.00
2023-05-19T19:21:15.476Z,100.00
2023-05-19T19:23:43.346Z,100.00
2023-05-19T19:26:10.987Z,100.00
2023-05-19T19:28:38.669Z,100.00
2023-05-19T19:31:06.389Z,100.00
2023-05-19T19:33:34.348Z,100.00
2023-05-19T19:36:02.347Z,100.00
2023-05-19T19:38:30.000Z,100.00
2023-05-19T19:40:57.514Z,100.00
2023-05-19T19:43:25.138Z,100.00
2023-05-19T19:46:02.791Z,100.00
2023-05-19T19:48:30.936Z,100.00
2023-05-19T19:50:58.880Z,100.00
2023-05-19T19:53:26.674Z,100.00
2023-05-19T19:56:00.216Z,100.00
2023-05-19T19:58:28.326Z,100.00
2023-05-19T20:01:06.568Z,100.00
2023-05-19T20:03:34.327Z,100.00
2023-05-19T20:06:01.983Z,100.00
2023-05-19T20:08:29.472Z,100.00
2023-05-19T20:10:57.048Z,100.00
2023-05-19T20:13:24.748Z,100.00
2023-05-19T20:15:52.347Z,100.00
2023-05-19T20:18:19.998Z,100.00
2023-05-19T20:20:47.484Z,100.00
2023-05-19T20:23:16.580Z,100.00
2023-05-19T20:26:02.349Z,100.00
2023-05-19T20:28:32.120Z,100.00
2023-05-19T20:30:59.677Z,100.00
2023-05-19T20:33:27.106Z,100.00
2023-05-19T20:35:54.630Z,100.00
2023-05-19T20:38:22.194Z,100.00
2023-05-19T20:40:49.718Z,100.00
2023-05-19T20:43:17.264Z,100.00
2023-05-19T20:45:44.967Z,100.00
2023-05-19T20:48:12.473Z,100.00
2023-05-19T20:50:40.334Z,100.00
2023-05-19T20:53:07.841Z,100.00
2023-05-19T20:55:38.205Z,100.00
2023-05-19T20:58:06.029Z,100.00
2023-05-19T21:00:33.963Z,100.00
2023-05-19T21:03:02.120Z,100.00
2023-05-19T21:05:29.864Z,100.00
2023-05-19T21:07:57.500Z,100.00
2023-05-19T21:10:25.066Z,100.00
2023-05-19T21:12:52.590Z,100.00
2023-05-19T21:15:20.203Z,100.00
2023-05-19T21:17:47.999Z,100.00
2023-05-19T21:20:15.455Z,100.00
2023-05-19T21:22:42.896Z,100.00
2023-05-19T21:25:11.106Z,100.00
2023-05-19T21:27:40.013Z,100.00
2023-05-19T21:30:09.872Z,100.00
2023-05-19T21:32:37.422Z,100.00
2023-05-19T21:35:06.526Z,100.00
2023-05-19T21:37:34.114Z,100.00
2023-05-19T21:40:01.999Z,100.00
2023-05-19T21:42:29.588Z,100.00
2023-05-19T21:44:57.190Z,100.00
2023-05-19T21:47:24.804Z,100.00
2023-05-19T21:49:52.264Z,100.00
2023-05-19T21:52:19.832Z,100.00
2023-05-19T21:54:48.259Z,100.00
2023-05-19T21:57:15.768Z,100.00
2023-05-19T21:59:44.461Z,100.00
2023-05-19T22:02:12.351Z,100.00
2023-05-19T22:04:40.081Z,100.00
2023-05-19T22:07:07.854Z,100.00
2023-05-19T22:09:35.510Z,100.00
2023-05-19T22:12:02.981Z,100.00
2023-05-19T22:14:30.611Z,100.00
2023-05-19T22:16:58.248Z,100.00
2023-05-19T22:19:25.948Z,100.00
2023-05-19T22:22:01.811Z,100.00
2023-05-19T22:24:33.577Z,100.00
2023-05-19T22:27:01.234Z,100.00
2023-05-19T22:29:28.791Z,100.00
2023-05-19T22:31:56.415Z,100.00
2023-05-19T22:34:24.350Z,100.00
2023-05-19T22:36:52.002Z,100.00
2023-05-19T22:39:19.541Z,100.00
2023-05-19T22:41:47.171Z,100.00
2023-05-19T22:44:16.557Z,100.00
2023-05-19T22:46:47.052Z,100.00
2023-05-19T22:49:14.587Z,100.00
2023-05-19T22:51:42.144Z,100.00
2023-05-19T22:54:10.993Z,100.00
2023-05-19T22:56:38.552Z,100.00
2023-05-19T22:59:06.250Z,100.00
2023-05-19T23:01:33.883Z,100.00
2023-05-19T23:04:01.527Z,100.00
2023-05-19T23:06:29.220Z,100.00
2023-05-19T23:09:01.706Z,100.00
2023-05-19T23:11:29.377Z,100.00
2023-05-19T23:13:57.080Z,100.00
2023-05-19T23:16:24.703Z,100.00
2023-05-19T23:18:52.315Z,100.00
2023-05-19T23:21:19.904Z,100.00
2023-05-19T23:23:47.448Z,100.00
2023-05-19T23:26:15.045Z,100.00
2023-05-19T23:28:43.079Z,100.00
2023-05-19T23:31:11.040Z,100.00
2023-05-19T23:33:38.621Z,100.00
2023-05-19T23:36:10.654Z,100.00
2023-05-19T23:38:38.490Z,100.00
2023-05-19T23:41:06.252Z,100.00
2023-05-19T23:43:33.849Z,100.00
2023-05-19T23:46:01.686Z,100.00
2023-05-19T23:48:29.759Z,100.00
2023-05-19T23:50:58.227Z,100.00
2023-05-19T23:53:25.976Z,100.00
2023-05-19T23:55:53.492Z,100.00
2023-05-19T23:58:21.359Z,100.00
